東京/横田 の空港の天気 - METARとTAF

横田飛行場 ( RJTY / OKO ) - 東京都福生市
飛行場実況気象(Metar)
観測時間02/25 14:56 JST (02/25 05:56 UTC)
風向・風速北 2m/s
視程10km以上
天気現象
全天を覆う雲 雲底高度 2900m
気温12℃
湿度43%
気圧1020.4hPa
METARRJTY 250556Z AUTO 01004KT 10SM OVC095 12/00 A3011 RMK AO2 SLP204 T01201002 10134 20109 56017 FZRANO $
過去の天気等 Google飛行場航空写真 Wunderground天気予報

過去48時間のMETAR

飛行場予報(TAF)
発表時間: 2/25 14:00 JST (2/25 05:00 UTC)
予報対象時間: 25日14時 JST ~ 26日20時 JST
風向・風速東北東 5m/s
視程10km以上
全天の8割程度の雲 雲底高度 1520m
全天を覆う雲 雲底高度 3050m
25日21時 JST ~ 25日22時 JST に徐々に
風向・風速不定 3m/s
視程8000m
天気現象弱いしゅう雨
全天の4割程度の雲 雲底高度 460m
全天を覆う雲 雲底高度 610m
26日5時 JST ~ 26日12時 JST に一時的に
風向・風速北 6m/s 瞬間風速 9m/s
全天を覆う雲 雲底高度 460m
TAF RJTY 250500Z 2505/2611 07009KT 9999 BKN050 OVC100 620609 QNH3000INS
BECMG 2512/2513 VRB06KT 8000 -SHRA SCT015 OVC020 640509 QNH2990INS
TEMPO 2520/2603 36012G18KT OVC015 TX14/2507Z TN03/2600Z
日本の空港のMETAR・TAFへのリンク

RJTT 東京国際空港
RJAA 新東京国際空港
RJBB 関西国際空港
RJOO 大阪空港
RJGG 中部国際空港
RJCC 新千歳空港
RJFF 福岡空港
ROAH 那覇空港


RJEC 旭川空港
RJCH 函館空港
RJCK 釧路空港
RJCM 女満別空港
RJCB 帯広空港
RJSA 青森空港
RJSS 仙台空港
RJSK 秋田空港
RJSF 福島空港
RJAH 茨城空港
RJSN 新潟空港
RJNT 富山空港
RJNK 小松飛行場
RJNS 静岡空港
RJOH 美保飛行場
RJOC 出雲空港
RJOB 岡山空港
RJOA 広島空港
RJOI 岩国飛行場
RJOT 高松空港
RJOM 松山空港
RJOK 高知空港
RJFR 北九州空港
RJFT 熊本空港
RJFU 長崎空港
RJFS 佐賀空港
RJFO 大分空港
RJFM 宮崎空港
RJFK 鹿児島空港
ROIG 石垣島空港
RJTY 横田飛行場
ROTM 普天間飛行場
RODN 嘉手納飛行場